Ester, AK (99725)

2:51 PM AKDT on August 02, 2015 (GMT -0800)
EsterOldRidgeTrl | | Change Station
CLOSE
Current Station
Personal Weather Station
Location: Fairbanks, AK
Elevation: 1200 ft
Nearby Weather Stations

Elev 1200 ft 64.83 °N, 148.18 °W | Updated 7 minutes ago

Overcast
Overcast
58.3 °F
Feels Like 58.3 °F
N
1.1
Wind Variable Wind from SSW

Today
High -- | Low -- °F
--% Chance of Precip.
Yesterday
High -- | Low -- °F
Precip. -- in
4:54 AM 11:01 PM
Waning Gibbous, 91% visible
Pressure 30.13 in
Visibility 10.0 miles
Clouds Few 2300 ft
Mostly Cloudy 2700 ft
Overcast 3500 ft
Dew Point 54 °F
Humidity 84%
Rainfall 0.00 in
Snow Depth Not available.
UV 2 out of 12
Pollen Not available.
Air Quality Not available.
Flu Activity Not available.
SPECI PAFA 022200Z 26008KT 10SM FEW023 BKN027 OVC035 16/10 A3013 RMK AO2 T01610100

More Conditions Fewer Conditions

Pressure 30.13 in
Visibility 10.0 miles
Clouds Few 2300 ft
Mostly Cloudy 2700 ft
Overcast 3500 ft
Dew Point 54 °F
Humidity 84%
Rainfall 0.00 in
Snow Depth Not available.
UV 2 out of 12
Pollen Not available.
Air Quality Not available.
Flu Activity Not available.
SPECI PAFA 022200Z 26008KT 10SM FEW023 BKN027 OVC035 16/10 A3013 RMK AO2 T01610100

More Conditions Fewer Conditions

10-Day Weather Forecast

×

Almanac

Astronomy

Aug. 02, 2015 Rise Set
Actual Time
Civil Twilight
Nautical Twilight
Astronomical Twilight
Moon
Length of Visible Light
Length of Day
Tomorrow will be .
, % of the Moon is Illuminated

Today's Extremes

State Highs State Lows

Community

WunderPhotos

Upload Photos

1,843,400 photos uploaded!

WunderBlogs® & News

Nearby

Air Quality

  Air Quality AQ Index Pollutant
Not available.

Snow Depth

Station Depth Elevation

Earthquake Activity

City Distance Mag. Time & Date
Minimum magnitude displayed is 2.5.

Coastal Water Temperatures

Place Temperature

Stations

Nearby Weather Stations

Station Location Temp. Windchill Dew Point Humidity Wind Precip. Elev Updated Type